sensor_id;sensor_type;location;lat;lon;timestamp;pressure;altitude;pressure_sealevel;temperature;humidity
68077;BME280;54866;53.458;14.540;2022-10-16T00:02:08;100251.50;;;13.25;100.00
68077;BME280;54866;53.458;14.540;2022-10-16T00:04:38;100255.61;;;13.24;100.00
68077;BME280;54866;53.458;14.540;2022-10-16T00:07:08;100260.73;;;13.24;100.00
68077;BME280;54866;53.458;14.540;2022-10-16T00:09:37;100263.94;;;13.24;100.00
68077;BME280;54866;53.458;14.540;2022-10-16T00:12:07;100266.04;;;13.24;100.00
68077;BME280;54866;53.458;14.540;2022-10-16T00:14:37;100258.38;;;13.25;100.00
68077;BME280;54866;53.458;14.540;2022-10-16T00:17:09;100253.91;;;13.25;100.00
68077;BME280;54866;53.458;14.540;2022-10-16T00:19:38;100253.79;;;13.27;100.00
68077;BME280;54866;53.458;14.540;2022-10-16T00:22:08;100254.16;;;13.28;100.00
68077;BME280;54866;53.458;14.540;2022-10-16T00:24:38;100256.61;;;13.28;100.00
68077;BME280;54866;53.458;14.540;2022-10-16T00:27:08;100258.77;;;13.30;100.00
68077;BME280;54866;53.458;14.540;2022-10-16T00:29:38;100257.32;;;13.32;100.00
68077;BME280;54866;53.458;14.540;2022-10-16T00:32:08;100254.42;;;13.31;100.00
68077;BME280;54866;53.458;14.540;2022-10-16T00:34:37;100260.18;;;13.30;100.00
68077;BME280;54866;53.458;14.540;2022-10-16T00:37:07;100270.42;;;13.28;100.00
68077;BME280;54866;53.458;14.540;2022-10-16T00:39:37;100273.73;;;13.27;100.00
68077;BME280;54866;53.458;14.540;2022-10-16T00:42:09;100279.05;;;13.25;100.00
68077;BME280;54866;53.458;14.540;2022-10-16T00:44:48;100280.79;;;13.24;100.00
68077;BME280;54866;53.458;14.540;2022-10-16T00:47:26;100278.34;;;13.22;100.00
68077;BME280;54866;53.458;14.540;2022-10-16T00:50:02;100283.29;;;13.22;100.00
68077;BME280;54866;53.458;14.540;2022-10-16T00:52:36;100281.36;;;13.21;100.00
68077;BME280;54866;53.458;14.540;2022-10-16T00:55:08;100279.87;;;13.22;100.00
68077;BME280;54866;53.458;14.540;2022-10-16T00:57:39;100279.34;;;13.22;100.00
68077;BME280;54866;53.458;14.540;2022-10-16T01:00:16;100284.27;;;13.23;100.00
68077;BME280;54866;53.458;14.540;2022-10-16T01:02:53;100285.23;;;13.23;100.00
68077;BME280;54866;53.458;14.540;2022-10-16T01:05:25;100287.13;;;13.24;100.00
68077;BME280;54866;53.458;14.540;2022-10-16T01:08:06;100291.14;;;13.24;100.00
68077;BME280;54866;53.458;14.540;2022-10-16T01:10:40;100293.23;;;13.25;100.00
68077;BME280;54866;53.458;14.540;2022-10-16T01:13:15;100304.97;;;13.24;100.00
68077;BME280;54866;53.458;14.540;2022-10-16T01:15:51;100301.37;;;13.25;100.00
68077;BME280;54866;53.458;14.540;2022-10-16T01:18:28;100298.71;;;13.25;100.00
68077;BME280;54866;53.458;14.540;2022-10-16T01:21:06;100294.07;;;13.25;100.00
68077;BME280;54866;53.458;14.540;2022-10-16T01:23:47;100294.69;;;13.24;100.00
68077;BME280;54866;53.458;14.540;2022-10-16T01:26:30;100293.38;;;13.25;100.00
68077;BME280;54866;53.458;14.540;2022-10-16T01:29:05;100302.40;;;13.25;100.00
68077;BME280;54866;53.458;14.540;2022-10-16T01:31:41;100303.02;;;13.24;100.00
68077;BME280;54866;53.458;14.540;2022-10-16T01:34:16;100305.73;;;13.24;100.00
68077;BME280;54866;53.458;14.540;2022-10-16T01:36:52;100310.45;;;13.24;100.00
68077;BME280;54866;53.458;14.540;2022-10-16T01:39:28;100316.50;;;13.26;100.00
68077;BME280;54866;53.458;14.540;2022-10-16T01:42:03;100319.00;;;13.27;100.00
68077;BME280;54866;53.458;14.540;2022-10-16T01:44:35;100320.92;;;13.29;100.00
68077;BME280;54866;53.458;14.540;2022-10-16T01:47:07;100321.55;;;13.32;100.00
68077;BME280;54866;53.458;14.540;2022-10-16T01:49:40;100316.89;;;13.35;100.00
68077;BME280;54866;53.458;14.540;2022-10-16T01:52:13;100311.00;;;13.37;100.00
68077;BME280;54866;53.458;14.540;2022-10-16T01:54:45;100315.19;;;13.39;100.00
68077;BME280;54866;53.458;14.540;2022-10-16T01:57:17;100319.55;;;13.42;100.00
68077;BME280;54866;53.458;14.540;2022-10-16T01:59:50;100316.16;;;13.42;100.00
68077;BME280;54866;53.458;14.540;2022-10-16T02:02:20;100318.15;;;13.44;100.00
68077;BME280;54866;53.458;14.540;2022-10-16T02:04:55;100312.66;;;13.42;100.00
68077;BME280;54866;53.458;14.540;2022-10-16T02:07:27;100312.31;;;13.43;100.00
68077;BME280;54866;53.458;14.540;2022-10-16T02:09:57;100313.51;;;13.44;100.00
68077;BME280;54866;53.458;14.540;2022-10-16T02:12:28;100317.55;;;13.44;100.00
68077;BME280;54866;53.458;14.540;2022-10-16T02:15:00;100324.45;;;13.46;100.00
68077;BME280;54866;53.458;14.540;2022-10-16T02:17:30;100320.81;;;13.47;100.00
68077;BME280;54866;53.458;14.540;2022-10-16T02:20:00;100317.60;;;13.48;100.00
68077;BME280;54866;53.458;14.540;2022-10-16T02:22:35;100322.23;;;13.47;100.00
68077;BME280;54866;53.458;14.540;2022-10-16T02:25:08;100322.23;;;13.47;100.00
68077;BME280;54866;53.458;14.540;2022-10-16T02:27:38;100319.45;;;13.47;100.00
68077;BME280;54866;53.458;14.540;2022-10-16T02:30:13;100321.94;;;13.44;100.00
68077;BME280;54866;53.458;14.540;2022-10-16T02:32:46;100319.52;;;13.44;100.00
68077;BME280;54866;53.458;14.540;2022-10-16T02:35:16;100319.95;;;13.43;100.00
68077;BME280;54866;53.458;14.540;2022-10-16T02:37:47;100323.58;;;13.42;100.00
68077;BME280;54866;53.458;14.540;2022-10-16T02:40:19;100322.80;;;13.41;100.00
68077;BME280;54866;53.458;14.540;2022-10-16T02:42:52;100328.86;;;13.43;100.00
68077;BME280;54866;53.458;14.540;2022-10-16T02:45:22;100329.95;;;13.42;100.00
68077;BME280;54866;53.458;14.540;2022-10-16T02:47:53;100338.23;;;13.43;100.00
68077;BME280;54866;53.458;14.540;2022-10-16T02:50:22;100337.94;;;13.44;100.00
68077;BME280;54866;53.458;14.540;2022-10-16T02:52:53;100340.77;;;13.45;100.00
68077;BME280;54866;53.458;14.540;2022-10-16T02:55:23;100346.30;;;13.47;100.00
68077;BME280;54866;53.458;14.540;2022-10-16T02:57:53;100345.34;;;13.48;100.00
68077;BME280;54866;53.458;14.540;2022-10-16T03:00:23;100341.56;;;13.48;100.00
68077;BME280;54866;53.458;14.540;2022-10-16T03:02:53;100342.39;;;13.49;100.00
68077;BME280;54866;53.458;14.540;2022-10-16T03:05:22;100344.59;;;13.48;100.00
68077;BME280;54866;53.458;14.540;2022-10-16T03:07:52;100349.48;;;13.47;100.00
68077;BME280;54866;53.458;14.540;2022-10-16T03:10:22;100355.88;;;13.47;100.00
68077;BME280;54866;53.458;14.540;2022-10-16T03:12:52;100365.59;;;13.45;100.00
68077;BME280;54866;53.458;14.540;2022-10-16T03:15:22;100366.46;;;13.43;100.00
68077;BME280;54866;53.458;14.540;2022-10-16T03:17:52;100365.05;;;13.42;100.00
68077;BME280;54866;53.458;14.540;2022-10-16T03:20:22;100364.61;;;13.41;100.00
68077;BME280;54866;53.458;14.540;2022-10-16T03:22:52;100364.39;;;13.39;100.00
68077;BME280;54866;53.458;14.540;2022-10-16T03:25:21;100362.16;;;13.39;100.00
68077;BME280;54866;53.458;14.540;2022-10-16T03:27:51;100358.19;;;13.36;100.00
68077;BME280;54866;53.458;14.540;2022-10-16T03:30:21;100368.21;;;13.35;100.00
68077;BME280;54866;53.458;14.540;2022-10-16T03:32:51;100364.48;;;13.33;100.00
68077;BME280;54866;53.458;14.540;2022-10-16T03:35:22;100361.29;;;13.31;100.00
68077;BME280;54866;53.458;14.540;2022-10-16T03:37:53;100362.60;;;13.30;100.00
68077;BME280;54866;53.458;14.540;2022-10-16T03:40:22;100375.62;;;13.29;100.00
68077;BME280;54866;53.458;14.540;2022-10-16T03:42:52;100381.08;;;13.27;100.00
68077;BME280;54866;53.458;14.540;2022-10-16T03:45:23;100381.23;;;13.26;100.00
68077;BME280;54866;53.458;14.540;2022-10-16T03:47:53;100383.35;;;13.26;100.00
68077;BME280;54866;53.458;14.540;2022-10-16T03:50:23;100385.94;;;13.27;100.00
68077;BME280;54866;53.458;14.540;2022-10-16T03:52:52;100384.23;;;13.26;100.00
68077;BME280;54866;53.458;14.540;2022-10-16T03:55:22;100389.49;;;13.26;100.00
68077;BME280;54866;53.458;14.540;2022-10-16T03:57:52;100396.92;;;13.27;100.00
68077;BME280;54866;53.458;14.540;2022-10-16T04:00:23;100392.20;;;13.26;100.00
68077;BME280;54866;53.458;14.540;2022-10-16T04:02:53;100389.17;;;13.28;100.00
68077;BME280;54866;53.458;14.540;2022-10-16T04:05:23;100390.84;;;13.29;100.00
68077;BME280;54866;53.458;14.540;2022-10-16T04:07:53;100392.05;;;13.30;100.00
68077;BME280;54866;53.458;14.540;2022-10-16T04:10:23;100391.46;;;13.30;100.00
68077;BME280;54866;53.458;14.540;2022-10-16T04:12:53;100395.08;;;13.31;100.00
68077;BME280;54866;53.458;14.540;2022-10-16T04:15:24;100393.83;;;13.31;100.00
68077;BME280;54866;53.458;14.540;2022-10-16T04:17:54;100397.17;;;13.31;100.00
68077;BME280;54866;53.458;14.540;2022-10-16T04:20:24;100396.67;;;13.31;100.00
68077;BME280;54866;53.458;14.540;2022-10-16T04:22:54;100401.33;;;13.29;100.00
68077;BME280;54866;53.458;14.540;2022-10-16T04:25:23;100398.92;;;13.28;100.00
68077;BME280;54866;53.458;14.540;2022-10-16T04:27:55;100407.65;;;13.25;100.00
68077;BME280;54866;53.458;14.540;2022-10-16T04:30:25;100411.89;;;13.22;100.00
68077;BME280;54866;53.458;14.540;2022-10-16T04:32:55;100415.42;;;13.18;100.00
68077;BME280;54866;53.458;14.540;2022-10-16T04:35:25;100414.29;;;13.14;100.00
68077;BME280;54866;53.458;14.540;2022-10-16T04:37:56;100411.98;;;13.11;100.00
68077;BME280;54866;53.458;14.540;2022-10-16T04:40:26;100420.23;;;13.08;100.00
68077;BME280;54866;53.458;14.540;2022-10-16T04:42:56;100424.27;;;13.05;100.00
68077;BME280;54866;53.458;14.540;2022-10-16T04:47:58;100411.73;;;13.02;100.00
68077;BME280;54866;53.458;14.540;2022-10-16T04:50:28;100420.09;;;12.98;100.00
68077;BME280;54866;53.458;14.540;2022-10-16T04:52:58;100424.82;;;12.94;100.00
68077;BME280;54866;53.458;14.540;2022-10-16T04:55:27;100430.85;;;12.92;100.00
68077;BME280;54866;53.458;14.540;2022-10-16T04:57:57;100432.40;;;12.89;100.00
68077;BME280;54866;53.458;14.540;2022-10-16T05:00:27;100425.90;;;12.87;100.00
68077;BME280;54866;53.458;14.540;2022-10-16T05:02:57;100439.91;;;12.84;100.00
68077;BME280;54866;53.458;14.540;2022-10-16T05:05:29;100433.45;;;12.82;100.00
68077;BME280;54866;53.458;14.540;2022-10-16T05:07:58;100430.98;;;12.78;100.00
68077;BME280;54866;53.458;14.540;2022-10-16T05:10:28;100438.80;;;12.75;100.00
68077;BME280;54866;53.458;14.540;2022-10-16T05:12:58;100440.31;;;12.73;100.00
68077;BME280;54866;53.458;14.540;2022-10-16T05:15:28;100441.89;;;12.71;100.00
68077;BME280;54866;53.458;14.540;2022-10-16T05:17:58;100443.66;;;12.69;100.00
68077;BME280;54866;53.458;14.540;2022-10-16T05:20:28;100449.23;;;12.65;100.00
68077;BME280;54866;53.458;14.540;2022-10-16T05:22:58;100445.35;;;12.63;100.00
68077;BME280;54866;53.458;14.540;2022-10-16T05:25:28;100448.50;;;12.62;100.00
68077;BME280;54866;53.458;14.540;2022-10-16T05:27:58;100452.86;;;12.61;100.00
68077;BME280;54866;53.458;14.540;2022-10-16T05:30:27;100454.17;;;12.58;100.00
68077;BME280;54866;53.458;14.540;2022-10-16T05:32:57;100455.79;;;12.58;100.00
68077;BME280;54866;53.458;14.540;2022-10-16T05:35:27;100460.95;;;12.57;100.00
68077;BME280;54866;53.458;14.540;2022-10-16T05:37:57;100463.80;;;12.57;100.00
68077;BME280;54866;53.458;14.540;2022-10-16T05:40:27;100467.31;;;12.57;100.00
68077;BME280;54866;53.458;14.540;2022-10-16T05:42:57;100466.75;;;12.57;100.00
68077;BME280;54866;53.458;14.540;2022-10-16T05:45:27;100471.36;;;12.57;100.00
68077;BME280;54866;53.458;14.540;2022-10-16T05:47:57;100473.04;;;12.59;100.00
68077;BME280;54866;53.458;14.540;2022-10-16T05:50:27;100473.88;;;12.59;100.00
68077;BME280;54866;53.458;14.540;2022-10-16T05:52:58;100478.84;;;12.61;100.00
68077;BME280;54866;53.458;14.540;2022-10-16T05:55:28;100482.41;;;12.62;100.00
68077;BME280;54866;53.458;14.540;2022-10-16T05:57:57;100488.63;;;12.64;100.00
68077;BME280;54866;53.458;14.540;2022-10-16T06:00:27;100490.89;;;12.66;100.00
68077;BME280;54866;53.458;14.540;2022-10-16T06:02:57;100494.09;;;12.68;100.00
68077;BME280;54866;53.458;14.540;2022-10-16T06:05:27;100506.91;;;12.73;100.00
68077;BME280;54866;53.458;14.540;2022-10-16T06:07:57;100505.92;;;12.76;100.00
68077;BME280;54866;53.458;14.540;2022-10-16T06:10:27;100514.83;;;12.81;100.00
68077;BME280;54866;53.458;14.540;2022-10-16T06:12:57;100528.59;;;12.85;100.00
68077;BME280;54866;53.458;14.540;2022-10-16T06:15:27;100534.76;;;12.89;100.00
68077;BME280;54866;53.458;14.540;2022-10-16T06:17:57;100537.66;;;12.92;100.00
68077;BME280;54866;53.458;14.540;2022-10-16T06:20:27;100529.36;;;12.96;100.00
68077;BME280;54866;53.458;14.540;2022-10-16T06:22:57;100532.73;;;13.00;100.00
68077;BME280;54866;53.458;14.540;2022-10-16T06:25:27;100532.92;;;13.04;100.00
68077;BME280;54866;53.458;14.540;2022-10-16T06:27:56;100535.64;;;13.07;100.00
68077;BME280;54866;53.458;14.540;2022-10-16T06:30:26;100533.34;;;13.11;100.00
68077;BME280;54866;53.458;14.540;2022-10-16T06:32:56;100534.73;;;13.17;100.00
68077;BME280;54866;53.458;14.540;2022-10-16T06:35:26;100534.37;;;13.25;100.00
68077;BME280;54866;53.458;14.540;2022-10-16T06:37:57;100535.50;;;13.36;100.00
68077;BME280;54866;53.458;14.540;2022-10-16T06:40:27;100531.70;;;13.51;100.00
68077;BME280;54866;53.458;14.540;2022-10-16T06:42:57;100542.01;;;13.70;100.00
68077;BME280;54866;53.458;14.540;2022-10-16T06:45:27;100552.87;;;13.87;99.75
68077;BME280;54866;53.458;14.540;2022-10-16T06:47:57;100553.21;;;14.02;98.90
68077;BME280;54866;53.458;14.540;2022-10-16T06:50:27;100550.96;;;14.27;97.81
68077;BME280;54866;53.458;14.540;2022-10-16T06:52:56;100550.23;;;14.55;96.52
68077;BME280;54866;53.458;14.540;2022-10-16T06:55:26;100552.83;;;14.88;94.64
68077;BME280;54866;53.458;14.540;2022-10-16T06:57:56;100550.63;;;15.08;92.65
68077;BME280;54866;53.458;14.540;2022-10-16T07:00:26;100551.84;;;15.63;91.81
68077;BME280;54866;53.458;14.540;2022-10-16T07:02:56;100541.00;;;16.14;88.42
68077;BME280;54866;53.458;14.540;2022-10-16T07:05:25;100548.11;;;16.54;86.87
68077;BME280;54866;53.458;14.540;2022-10-16T07:07:55;100559.81;;;17.66;84.26
68077;BME280;54866;53.458;14.540;2022-10-16T07:10:25;100563.21;;;19.13;78.59
68077;BME280;54866;53.458;14.540;2022-10-16T07:12:55;100564.80;;;19.92;73.60
68077;BME280;54866;53.458;14.540;2022-10-16T07:15:25;100561.11;;;19.85;72.75
68077;BME280;54866;53.458;14.540;2022-10-16T07:17:56;100565.56;;;19.26;72.47
68077;BME280;54866;53.458;14.540;2022-10-16T07:20:26;100571.32;;;18.66;73.90
68077;BME280;54866;53.458;14.540;2022-10-16T07:22:56;100572.75;;;18.12;74.95
68077;BME280;54866;53.458;14.540;2022-10-16T07:25:26;100578.16;;;17.76;75.30
68077;BME280;54866;53.458;14.540;2022-10-16T07:27:55;100587.61;;;17.44;76.31
68077;BME280;54866;53.458;14.540;2022-10-16T07:30:25;100595.63;;;16.98;77.13
68077;BME280;54866;53.458;14.540;2022-10-16T07:32:55;100599.39;;;16.74;79.06
68077;BME280;54866;53.458;14.540;2022-10-16T07:35:25;100606.77;;;16.48;80.19
68077;BME280;54866;53.458;14.540;2022-10-16T07:37:55;100605.46;;;16.19;81.19
68077;BME280;54866;53.458;14.540;2022-10-16T07:40:24;100605.35;;;15.96;82.21
68077;BME280;54866;53.458;14.540;2022-10-16T07:42:55;100598.76;;;15.77;83.07
68077;BME280;54866;53.458;14.540;2022-10-16T07:45:25;100612.90;;;15.66;83.97
68077;BME280;54866;53.458;14.540;2022-10-16T07:47:55;100617.77;;;15.65;84.16
68077;BME280;54866;53.458;14.540;2022-10-16T07:50:25;100616.35;;;15.68;84.39
68077;BME280;54866;53.458;14.540;2022-10-16T07:52:54;100613.64;;;15.71;84.00
68077;BME280;54866;53.458;14.540;2022-10-16T07:55:24;100617.27;;;15.89;84.04
68077;BME280;54866;53.458;14.540;2022-10-16T07:57:54;100619.88;;;16.45;82.40
68077;BME280;54866;53.458;14.540;2022-10-16T08:00:24;100621.00;;;17.05;80.39
68077;BME280;54866;53.458;14.540;2022-10-16T08:02:54;100618.37;;;18.03;77.10
68077;BME280;54866;53.458;14.540;2022-10-16T08:05:25;100622.23;;;18.98;73.63
68077;BME280;54866;53.458;14.540;2022-10-16T08:07:54;100625.83;;;20.28;68.27
68077;BME280;54866;53.458;14.540;2022-10-16T08:10:26;100625.94;;;20.28;65.80
68077;BME280;54866;53.458;14.540;2022-10-16T08:12:56;100625.83;;;20.34;63.89
68077;BME280;54866;53.458;14.540;2022-10-16T08:15:26;100634.39;;;19.78;65.93
68077;BME280;54866;53.458;14.540;2022-10-16T08:18:00;100632.91;;;19.16;66.60
68077;BME280;54866;53.458;14.540;2022-10-16T08:20:32;100629.99;;;18.60;68.07
68077;BME280;54866;53.458;14.540;2022-10-16T08:23:02;100634.52;;;18.21;69.59
68077;BME280;54866;53.458;14.540;2022-10-16T08:25:33;100632.91;;;17.99;70.57
68077;BME280;54866;53.458;14.540;2022-10-16T08:28:04;100626.05;;;17.79;70.62
68077;BME280;54866;53.458;14.540;2022-10-16T08:30:34;100629.36;;;17.55;70.88
68077;BME280;54866;53.458;14.540;2022-10-16T08:33:04;100620.51;;;17.36;72.48
68077;BME280;54866;53.458;14.540;2022-10-16T08:35:35;100633.14;;;17.30;73.43
68077;BME280;54866;53.458;14.540;2022-10-16T08:38:06;100628.33;;;17.22;74.14
68077;BME280;54866;53.458;14.540;2022-10-16T08:40:38;100630.13;;;17.11;74.45
68077;BME280;54866;53.458;14.540;2022-10-16T08:43:24;100634.00;;;16.95;75.14
68077;BME280;54866;53.458;14.540;2022-10-16T08:46:14;100632.05;;;16.78;75.83
68077;BME280;54866;53.458;14.540;2022-10-16T08:48:51;100634.63;;;16.62;76.52
68077;BME280;54866;53.458;14.540;2022-10-16T08:51:23;100643.27;;;16.49;77.26
68077;BME280;54866;53.458;14.540;2022-10-16T08:53:56;100641.41;;;16.46;77.53
68077;BME280;54866;53.458;14.540;2022-10-16T08:56:27;100638.03;;;16.56;77.48
68077;BME280;54866;53.458;14.540;2022-10-16T08:58:59;100648.47;;;16.71;76.87
68077;BME280;54866;53.458;14.540;2022-10-16T09:01:39;100654.94;;;16.72;76.43
68077;BME280;54866;53.458;14.540;2022-10-16T09:04:29;100652.48;;;16.77;76.15
68077;BME280;54866;53.458;14.540;2022-10-16T09:07:13;100648.41;;;16.87;75.19
68077;BME280;54866;53.458;14.540;2022-10-16T09:09:58;100654.36;;;16.98;75.21
68077;BME280;54866;53.458;14.540;2022-10-16T09:12:38;100657.25;;;17.11;74.81
68077;BME280;54866;53.458;14.540;2022-10-16T09:15:20;100655.30;;;17.41;73.11
68077;BME280;54866;53.458;14.540;2022-10-16T09:17:56;100663.42;;;17.48;72.31
68077;BME280;54866;53.458;14.540;2022-10-16T09:20:38;100665.25;;;17.36;73.56
68077;BME280;54866;53.458;14.540;2022-10-16T09:23:19;100663.30;;;17.29;73.81
68077;BME280;54866;53.458;14.540;2022-10-16T09:25:50;100666.86;;;17.21;74.13
68077;BME280;54866;53.458;14.540;2022-10-16T09:28:20;100664.23;;;17.34;74.51
68077;BME280;54866;53.458;14.540;2022-10-16T09:30:50;100667.08;;;17.53;73.44
68077;BME280;54866;53.458;14.540;2022-10-16T09:33:22;100664.36;;;18.40;70.87
68077;BME280;54866;53.458;14.540;2022-10-16T09:35:56;100657.40;;;19.15;67.01
68077;BME280;54866;53.458;14.540;2022-10-16T09:38:27;100668.55;;;18.90;67.34
68077;BME280;54866;53.458;14.540;2022-10-16T09:40:58;100664.80;;;18.58;68.38
68077;BME280;54866;53.458;14.540;2022-10-16T09:43:34;100660.81;;;18.52;68.59
68077;BME280;54866;53.458;14.540;2022-10-16T09:46:06;100665.08;;;18.43;68.23
68077;BME280;54866;53.458;14.540;2022-10-16T09:48:38;100668.01;;;18.29;68.08
68077;BME280;54866;53.458;14.540;2022-10-16T09:51:21;100669.39;;;18.17;68.28
68077;BME280;54866;53.458;14.540;2022-10-16T09:53:56;100669.15;;;18.19;67.96
68077;BME280;54866;53.458;14.540;2022-10-16T09:56:28;100675.29;;;18.16;68.17
68077;BME280;54866;53.458;14.540;2022-10-16T09:58:59;100682.26;;;18.20;68.67
68077;BME280;54866;53.458;14.540;2022-10-16T10:01:34;100677.41;;;18.20;67.88
68077;BME280;54866;53.458;14.540;2022-10-16T10:04:06;100678.69;;;18.22;68.28
68077;BME280;54866;53.458;14.540;2022-10-16T10:06:40;100678.86;;;18.25;68.41
68077;BME280;54866;53.458;14.540;2022-10-16T10:09:21;100677.84;;;18.67;67.54
68077;BME280;54866;53.458;14.540;2022-10-16T10:11:53;100673.86;;;19.81;64.04
68077;BME280;54866;53.458;14.540;2022-10-16T10:14:30;100676.01;;;20.16;60.80
68077;BME280;54866;53.458;14.540;2022-10-16T10:17:15;100680.67;;;20.25;59.30
68077;BME280;54866;53.458;14.540;2022-10-16T10:19:49;100679.98;;;20.35;59.28
68077;BME280;54866;53.458;14.540;2022-10-16T10:22:40;100679.52;;;20.29;58.20
68077;BME280;54866;53.458;14.540;2022-10-16T10:25:29;100688.21;;;19.88;58.92
68077;BME280;54866;53.458;14.540;2022-10-16T10:28:21;100698.31;;;19.49;59.95
68077;BME280;54866;53.458;14.540;2022-10-16T10:30:59;100702.02;;;19.45;60.71
68077;BME280;54866;53.458;14.540;2022-10-16T10:33:41;100697.77;;;20.03;59.51
68077;BME280;54866;53.458;14.540;2022-10-16T10:36:25;100697.85;;;20.95;58.02
68077;BME280;54866;53.458;14.540;2022-10-16T10:38:59;100689.32;;;21.68;55.08
68077;BME280;54866;53.458;14.540;2022-10-16T10:42:01;100695.25;;;21.96;54.56
68077;BME280;54866;53.458;14.540;2022-10-16T10:44:55;100694.71;;;22.00;54.79
68077;BME280;54866;53.458;14.540;2022-10-16T10:47:35;100692.89;;;22.18;52.90
68077;BME280;54866;53.458;14.540;2022-10-16T10:50:17;100697.23;;;22.64;51.34
68077;BME280;54866;53.458;14.540;2022-10-16T10:53:06;100700.01;;;22.64;50.68
68077;BME280;54866;53.458;14.540;2022-10-16T10:55:43;100702.16;;;23.29;49.80
68077;BME280;54866;53.458;14.540;2022-10-16T10:58:43;100699.02;;;23.50;49.00
68077;BME280;54866;53.458;14.540;2022-10-16T11:01:16;100696.24;;;23.36;48.63
68077;BME280;54866;53.458;14.540;2022-10-16T11:04:07;100696.27;;;23.27;49.83
68077;BME280;54866;53.458;14.540;2022-10-16T11:06:41;100693.98;;;23.25;50.22
68077;BME280;54866;53.458;14.540;2022-10-16T11:09:15;100691.02;;;23.38;50.61
68077;BME280;54866;53.458;14.540;2022-10-16T11:11:50;100686.36;;;23.86;48.40
68077;BME280;54866;53.458;14.540;2022-10-16T11:14:26;100695.39;;;24.39;47.41
68077;BME280;54866;53.458;14.540;2022-10-16T11:17:01;100701.85;;;24.52;47.28
68077;BME280;54866;53.458;14.540;2022-10-16T11:19:38;100705.54;;;24.75;46.83
68077;BME280;54866;53.458;14.540;2022-10-16T11:22:15;100701.67;;;25.02;44.43
68077;BME280;54866;53.458;14.540;2022-10-16T11:24:51;100698.05;;;25.50;43.51
68077;BME280;54866;53.458;14.540;2022-10-16T11:27:26;100702.57;;;25.80;41.13
68077;BME280;54866;53.458;14.540;2022-10-16T11:30:03;100701.61;;;25.65;40.80
68077;BME280;54866;53.458;14.540;2022-10-16T11:32:45;100696.16;;;25.64;40.92
68077;BME280;54866;53.458;14.540;2022-10-16T11:35:23;100696.46;;;25.73;40.73
68077;BME280;54866;53.458;14.540;2022-10-16T11:37:54;100698.98;;;25.83;40.03
68077;BME280;54866;53.458;14.540;2022-10-16T11:40:31;100699.84;;;25.69;39.98
68077;BME280;54866;53.458;14.540;2022-10-16T11:43:06;100695.54;;;25.58;39.93
68077;BME280;54866;53.458;14.540;2022-10-16T11:45:43;100696.15;;;25.55;40.83
68077;BME280;54866;53.458;14.540;2022-10-16T11:48:22;100699.70;;;25.70;41.27
68077;BME280;54866;53.458;14.540;2022-10-16T11:50:58;100699.27;;;25.82;41.29
68077;BME280;54866;53.458;14.540;2022-10-16T11:53:42;100704.02;;;26.00;40.59
68077;BME280;54866;53.458;14.540;2022-10-16T11:56:17;100702.63;;;25.96;40.46
68077;BME280;54866;53.458;14.540;2022-10-16T11:58:54;100696.30;;;25.96;41.15
68077;BME280;54866;53.458;14.540;2022-10-16T12:01:31;100703.57;;;25.88;41.31
68077;BME280;54866;53.458;14.540;2022-10-16T12:04:11;100703.67;;;25.73;41.49
68077;BME280;54866;53.458;14.540;2022-10-16T12:06:46;100695.98;;;25.69;42.57
68077;BME280;54866;53.458;14.540;2022-10-16T12:09:21;100694.33;;;25.67;42.37
68077;BME280;54866;53.458;14.540;2022-10-16T12:11:52;100700.82;;;25.45;42.59
68077;BME280;54866;53.458;14.540;2022-10-16T12:14:35;100691.35;;;25.19;42.97
68077;BME280;54866;53.458;14.540;2022-10-16T12:17:25;100707.22;;;25.29;43.37
68077;BME280;54866;53.458;14.540;2022-10-16T12:20:18;100704.02;;;25.16;43.49
68077;BME280;54866;53.458;14.540;2022-10-16T12:22:52;100707.27;;;25.05;44.03
68077;BME280;54866;53.458;14.540;2022-10-16T12:25:26;100701.65;;;25.12;44.44
68077;BME280;54866;53.458;14.540;2022-10-16T12:27:59;100712.23;;;25.09;44.85
68077;BME280;54866;53.458;14.540;2022-10-16T12:30:31;100711.22;;;24.99;44.73
68077;BME280;54866;53.458;14.540;2022-10-16T12:33:02;100710.19;;;24.99;45.04
68077;BME280;54866;53.458;14.540;2022-10-16T12:35:35;100707.11;;;24.59;46.17
68077;BME280;54866;53.458;14.540;2022-10-16T12:38:18;100712.55;;;24.28;47.15
68077;BME280;54866;53.458;14.540;2022-10-16T12:40:56;100710.21;;;24.29;47.77
68077;BME280;54866;53.458;14.540;2022-10-16T12:43:42;100716.77;;;23.79;48.59
68077;BME280;54866;53.458;14.540;2022-10-16T12:47:57;100726.88;;;23.28;49.37
68077;BME280;54866;53.458;14.540;2022-10-16T12:50:33;100729.83;;;23.29;49.02
68077;BME280;54866;53.458;14.540;2022-10-16T12:53:16;100742.88;;;22.84;49.74
68077;BME280;54866;53.458;14.540;2022-10-16T12:55:52;100738.30;;;22.51;50.34
68077;BME280;54866;53.458;14.540;2022-10-16T12:58:39;100741.98;;;22.62;50.84
68077;BME280;54866;53.458;14.540;2022-10-16T13:01:23;100744.02;;;22.98;50.80
68077;BME280;54866;53.458;14.540;2022-10-16T13:04:15;100744.55;;;22.57;51.92
68077;BME280;54866;53.458;14.540;2022-10-16T13:06:53;100754.81;;;22.02;53.79
68077;BME280;54866;53.458;14.540;2022-10-16T13:09:37;100754.86;;;21.98;54.60
68077;BME280;54866;53.458;14.540;2022-10-16T13:12:30;100750.61;;;22.35;53.77